Terminal Aerodrome Forecast
Issued by NWS Sioux Falls, SD

Home | Current Version | Previous Version | Graphics & Text | Print | Product List | Glossary Off
Versions: 1 2 3 4 5 6 7 8 9 10 11 12 13 14 15 16 17 18

000
FTUS43 KFSD 311122
TAFSUX
TAF
KSUX 311122Z 3112/0112 VRB03KT 4SM BR SCT003
      TEMPO 3112/3113 1SM BR
     FM311400 VRB03KT P6SM FEW250
     FM311800 05007KT P6SM SKC
     FM010200 VRB03KT P6SM SKC=

USA.gov is the U.S. government's official web portal to all federal, state and local government web resources and services.